sensor_id;sensor_type;location;lat;lon;timestamp;temperature;humidity
15638;DHT22;26604;53.596;10.042;2022-11-15T00:02:12;19.20;1.00
15638;DHT22;26604;53.596;10.042;2022-11-15T00:04:40;19.30;1.00
15638;DHT22;26604;53.596;10.042;2022-11-15T00:07:07;19.20;1.00
15638;DHT22;26604;53.596;10.042;2022-11-15T00:09:34;19.20;1.00
15638;DHT22;26604;53.596;10.042;2022-11-15T00:12:01;19.20;1.00
15638;DHT22;26604;53.596;10.042;2022-11-15T00:14:28;19.20;1.00
15638;DHT22;26604;53.596;10.042;2022-11-15T00:16:54;19.10;1.00
15638;DHT22;26604;53.596;10.042;2022-11-15T00:19:21;19.20;1.00
15638;DHT22;26604;53.596;10.042;2022-11-15T00:21:49;19.10;1.00
15638;DHT22;26604;53.596;10.042;2022-11-15T00:24:16;19.20;1.00
15638;DHT22;26604;53.596;10.042;2022-11-15T00:26:43;19.10;1.00
15638;DHT22;26604;53.596;10.042;2022-11-15T00:29:10;19.10;1.00
15638;DHT22;26604;53.596;10.042;2022-11-15T00:31:37;19.10;1.00
15638;DHT22;26604;53.596;10.042;2022-11-15T00:34:04;19.10;1.00
15638;DHT22;26604;53.596;10.042;2022-11-15T00:36:33;19.10;1.00
15638;DHT22;26604;53.596;10.042;2022-11-15T00:39:03;19.10;1.00
15638;DHT22;26604;53.596;10.042;2022-11-15T00:41:31;19.10;1.00
15638;DHT22;26604;53.596;10.042;2022-11-15T00:43:58;19.10;1.00
15638;DHT22;26604;53.596;10.042;2022-11-15T00:46:24;19.10;1.00
15638;DHT22;26604;53.596;10.042;2022-11-15T00:48:51;19.10;1.00
15638;DHT22;26604;53.596;10.042;2022-11-15T00:51:18;19.10;1.00
15638;DHT22;26604;53.596;10.042;2022-11-15T00:53:45;19.10;1.00
15638;DHT22;26604;53.596;10.042;2022-11-15T00:56:13;19.10;1.00
15638;DHT22;26604;53.596;10.042;2022-11-15T00:58:40;19.10;1.00
15638;DHT22;26604;53.596;10.042;2022-11-15T01:01:08;19.10;1.00
15638;DHT22;26604;53.596;10.042;2022-11-15T01:03:36;19.10;1.00
15638;DHT22;26604;53.596;10.042;2022-11-15T01:06:03;19.10;1.00
15638;DHT22;26604;53.596;10.042;2022-11-15T01:08:30;19.10;1.00
15638;DHT22;26604;53.596;10.042;2022-11-15T01:11:01;19.10;1.00
15638;DHT22;26604;53.596;10.042;2022-11-15T01:13:31;19.10;1.00
15638;DHT22;26604;53.596;10.042;2022-11-15T01:15:58;19.10;1.00
15638;DHT22;26604;53.596;10.042;2022-11-15T01:18:25;19.10;1.00
15638;DHT22;26604;53.596;10.042;2022-11-15T01:20:52;19.10;1.00
15638;DHT22;26604;53.596;10.042;2022-11-15T01:23:19;19.10;1.00
15638;DHT22;26604;53.596;10.042;2022-11-15T01:25:45;19.10;1.00
15638;DHT22;26604;53.596;10.042;2022-11-15T01:28:12;19.10;1.00
15638;DHT22;26604;53.596;10.042;2022-11-15T01:30:40;19.10;1.00
15638;DHT22;26604;53.596;10.042;2022-11-15T01:33:07;19.10;1.00
15638;DHT22;26604;53.596;10.042;2022-11-15T01:35:38;19.10;1.00
15638;DHT22;26604;53.596;10.042;2022-11-15T01:38:05;19.10;1.00
15638;DHT22;26604;53.596;10.042;2022-11-15T01:40:32;19.10;1.00
15638;DHT22;26604;53.596;10.042;2022-11-15T01:42:59;19.10;1.00
15638;DHT22;26604;53.596;10.042;2022-11-15T01:45:26;19.10;1.00
15638;DHT22;26604;53.596;10.042;2022-11-15T01:47:55;19.10;1.00
15638;DHT22;26604;53.596;10.042;2022-11-15T01:50:25;19.10;1.00
15638;DHT22;26604;53.596;10.042;2022-11-15T01:52:53;19.10;1.00
15638;DHT22;26604;53.596;10.042;2022-11-15T01:55:24;19.10;1.00
15638;DHT22;26604;53.596;10.042;2022-11-15T01:57:53;19.10;1.00
15638;DHT22;26604;53.596;10.042;2022-11-15T02:00:21;19.10;1.00
15638;DHT22;26604;53.596;10.042;2022-11-15T02:02:48;19.10;1.00
15638;DHT22;26604;53.596;10.042;2022-11-15T02:05:17;19.10;1.00
15638;DHT22;26604;53.596;10.042;2022-11-15T02:07:44;19.10;1.00
15638;DHT22;26604;53.596;10.042;2022-11-15T02:10:16;19.10;1.00
15638;DHT22;26604;53.596;10.042;2022-11-15T02:12:43;19.00;1.00
15638;DHT22;26604;53.596;10.042;2022-11-15T02:15:11;19.00;1.00
15638;DHT22;26604;53.596;10.042;2022-11-15T02:17:54;19.00;1.00
15638;DHT22;26604;53.596;10.042;2022-11-15T02:20:39;19.00;1.00
15638;DHT22;26604;53.596;10.042;2022-11-15T02:23:38;19.00;1.00
15638;DHT22;26604;53.596;10.042;2022-11-15T02:26:25;19.00;1.00
15638;DHT22;26604;53.596;10.042;2022-11-15T02:29:00;19.00;1.00
15638;DHT22;26604;53.596;10.042;2022-11-15T02:31:35;19.00;1.00
15638;DHT22;26604;53.596;10.042;2022-11-15T02:34:08;19.00;1.00
15638;DHT22;26604;53.596;10.042;2022-11-15T02:36:42;19.00;1.00
15638;DHT22;26604;53.596;10.042;2022-11-15T02:39:18;19.00;1.00
15638;DHT22;26604;53.596;10.042;2022-11-15T02:41:49;19.00;1.00
15638;DHT22;26604;53.596;10.042;2022-11-15T02:44:23;19.00;1.00
15638;DHT22;26604;53.596;10.042;2022-11-15T02:46:54;19.00;1.00
15638;DHT22;26604;53.596;10.042;2022-11-15T02:49:45;19.00;1.00
15638;DHT22;26604;53.596;10.042;2022-11-15T02:52:15;19.00;1.00
15638;DHT22;26604;53.596;10.042;2022-11-15T02:54:42;19.00;1.00
15638;DHT22;26604;53.596;10.042;2022-11-15T02:57:13;19.00;1.00
15638;DHT22;26604;53.596;10.042;2022-11-15T03:00:04;19.00;1.00
15638;DHT22;26604;53.596;10.042;2022-11-15T03:02:44;19.00;1.00
15638;DHT22;26604;53.596;10.042;2022-11-15T03:05:19;19.00;1.00
15638;DHT22;26604;53.596;10.042;2022-11-15T03:07:52;19.00;1.00
15638;DHT22;26604;53.596;10.042;2022-11-15T03:10:25;19.00;1.00
15638;DHT22;26604;53.596;10.042;2022-11-15T03:12:56;19.00;1.00
15638;DHT22;26604;53.596;10.042;2022-11-15T03:15:27;19.00;1.00
15638;DHT22;26604;53.596;10.042;2022-11-15T03:17:59;19.00;1.00
15638;DHT22;26604;53.596;10.042;2022-11-15T03:20:27;19.00;1.00
15638;DHT22;26604;53.596;10.042;2022-11-15T03:22:56;19.00;1.00
15638;DHT22;26604;53.596;10.042;2022-11-15T03:25:28;19.00;1.00
15638;DHT22;26604;53.596;10.042;2022-11-15T03:27:59;19.00;1.00
15638;DHT22;26604;53.596;10.042;2022-11-15T03:30:30;19.00;1.00
15638;DHT22;26604;53.596;10.042;2022-11-15T03:33:00;19.00;1.00
15638;DHT22;26604;53.596;10.042;2022-11-15T03:35:32;19.00;1.00
15638;DHT22;26604;53.596;10.042;2022-11-15T03:38:08;19.00;1.00
15638;DHT22;26604;53.596;10.042;2022-11-15T03:40:39;19.00;1.00
15638;DHT22;26604;53.596;10.042;2022-11-15T03:43:11;19.00;1.00
15638;DHT22;26604;53.596;10.042;2022-11-15T03:45:44;19.00;1.00
15638;DHT22;26604;53.596;10.042;2022-11-15T03:48:17;19.00;1.00
15638;DHT22;26604;53.596;10.042;2022-11-15T03:50:45;19.00;1.00
15638;DHT22;26604;53.596;10.042;2022-11-15T03:53:13;18.90;1.00
15638;DHT22;26604;53.596;10.042;2022-11-15T03:55:40;19.00;1.00
15638;DHT22;26604;53.596;10.042;2022-11-15T03:58:07;18.90;1.00
15638;DHT22;26604;53.596;10.042;2022-11-15T04:00:34;18.90;1.00
15638;DHT22;26604;53.596;10.042;2022-11-15T04:03:01;18.90;1.00
15638;DHT22;26604;53.596;10.042;2022-11-15T04:05:29;18.90;1.00
15638;DHT22;26604;53.596;10.042;2022-11-15T04:07:56;18.90;1.00
15638;DHT22;26604;53.596;10.042;2022-11-15T04:10:23;18.90;1.00
15638;DHT22;26604;53.596;10.042;2022-11-15T04:12:49;18.90;1.00
15638;DHT22;26604;53.596;10.042;2022-11-15T04:15:18;19.00;1.00
15638;DHT22;26604;53.596;10.042;2022-11-15T04:17:46;19.00;1.00
15638;DHT22;26604;53.596;10.042;2022-11-15T04:20:27;18.90;1.00
15638;DHT22;26604;53.596;10.042;2022-11-15T04:23:14;18.90;1.00
15638;DHT22;26604;53.596;10.042;2022-11-15T04:26:01;18.90;1.00
15638;DHT22;26604;53.596;10.042;2022-11-15T04:28:28;18.90;1.00
15638;DHT22;26604;53.596;10.042;2022-11-15T04:30:55;18.90;1.00
15638;DHT22;26604;53.596;10.042;2022-11-15T04:33:22;18.90;1.00
15638;DHT22;26604;53.596;10.042;2022-11-15T04:35:49;18.90;1.00
15638;DHT22;26604;53.596;10.042;2022-11-15T04:38:32;18.90;1.00
15638;DHT22;26604;53.596;10.042;2022-11-15T04:40:58;18.90;1.00
15638;DHT22;26604;53.596;10.042;2022-11-15T04:43:25;18.90;1.00
15638;DHT22;26604;53.596;10.042;2022-11-15T04:45:52;18.90;1.00
15638;DHT22;26604;53.596;10.042;2022-11-15T04:48:19;18.90;1.00
15638;DHT22;26604;53.596;10.042;2022-11-15T04:50:47;18.90;1.00
15638;DHT22;26604;53.596;10.042;2022-11-15T04:53:14;18.90;1.00
15638;DHT22;26604;53.596;10.042;2022-11-15T04:55:45;18.90;1.00
15638;DHT22;26604;53.596;10.042;2022-11-15T04:58:12;18.90;1.00
15638;DHT22;26604;53.596;10.042;2022-11-15T05:00:39;18.90;1.00
15638;DHT22;26604;53.596;10.042;2022-11-15T05:03:06;18.90;1.00
15638;DHT22;26604;53.596;10.042;2022-11-15T05:05:50;18.90;1.00
15638;DHT22;26604;53.596;10.042;2022-11-15T05:08:17;18.90;1.00
15638;DHT22;26604;53.596;10.042;2022-11-15T05:10:46;18.90;1.00
15638;DHT22;26604;53.596;10.042;2022-11-15T05:13:14;18.90;1.00
15638;DHT22;26604;53.596;10.042;2022-11-15T05:15:40;18.90;1.00
15638;DHT22;26604;53.596;10.042;2022-11-15T05:18:07;18.90;1.00
15638;DHT22;26604;53.596;10.042;2022-11-15T05:20:34;18.90;1.00
15638;DHT22;26604;53.596;10.042;2022-11-15T05:23:01;18.90;1.00
15638;DHT22;26604;53.596;10.042;2022-11-15T05:25:28;18.90;1.00
15638;DHT22;26604;53.596;10.042;2022-11-15T05:27:56;18.90;1.00
15638;DHT22;26604;53.596;10.042;2022-11-15T05:30:23;18.90;1.00
15638;DHT22;26604;53.596;10.042;2022-11-15T05:32:50;18.90;1.00
15638;DHT22;26604;53.596;10.042;2022-11-15T05:35:21;18.90;1.00
15638;DHT22;26604;53.596;10.042;2022-11-15T05:37:52;18.90;1.00
15638;DHT22;26604;53.596;10.042;2022-11-15T05:40:19;18.90;1.00
15638;DHT22;26604;53.596;10.042;2022-11-15T05:42:46;18.90;1.00
15638;DHT22;26604;53.596;10.042;2022-11-15T05:45:16;18.90;1.00
15638;DHT22;26604;53.596;10.042;2022-11-15T05:47:43;18.90;1.00
15638;DHT22;26604;53.596;10.042;2022-11-15T05:50:12;18.90;1.00
15638;DHT22;26604;53.596;10.042;2022-11-15T05:52:42;18.90;1.00
15638;DHT22;26604;53.596;10.042;2022-11-15T05:55:09;18.90;1.00
15638;DHT22;26604;53.596;10.042;2022-11-15T05:57:36;18.90;1.00
15638;DHT22;26604;53.596;10.042;2022-11-15T06:00:04;18.90;1.00
15638;DHT22;26604;53.596;10.042;2022-11-15T06:02:33;18.90;1.00
15638;DHT22;26604;53.596;10.042;2022-11-15T06:04:59;18.90;1.00
15638;DHT22;26604;53.596;10.042;2022-11-15T06:07:26;18.90;1.00
15638;DHT22;26604;53.596;10.042;2022-11-15T06:09:55;19.00;1.00
15638;DHT22;26604;53.596;10.042;2022-11-15T06:12:22;19.00;1.00
15638;DHT22;26604;53.596;10.042;2022-11-15T06:14:49;19.10;1.00
15638;DHT22;26604;53.596;10.042;2022-11-15T06:17:15;19.10;1.00
15638;DHT22;26604;53.596;10.042;2022-11-15T06:19:44;19.10;1.00
15638;DHT22;26604;53.596;10.042;2022-11-15T06:22:10;19.10;1.00
15638;DHT22;26604;53.596;10.042;2022-11-15T06:24:37;19.10;1.00
15638;DHT22;26604;53.596;10.042;2022-11-15T06:27:04;19.00;1.00
15638;DHT22;26604;53.596;10.042;2022-11-15T06:29:31;19.00;1.00
15638;DHT22;26604;53.596;10.042;2022-11-15T06:31:58;19.00;1.00
15638;DHT22;26604;53.596;10.042;2022-11-15T06:34:24;19.00;1.00
15638;DHT22;26604;53.596;10.042;2022-11-15T06:36:53;19.00;1.00
15638;DHT22;26604;53.596;10.042;2022-11-15T06:39:19;19.00;1.00
15638;DHT22;26604;53.596;10.042;2022-11-15T06:41:46;19.00;1.00
15638;DHT22;26604;53.596;10.042;2022-11-15T06:44:13;19.00;1.00
15638;DHT22;26604;53.596;10.042;2022-11-15T06:46:40;19.00;1.00
15638;DHT22;26604;53.596;10.042;2022-11-15T06:49:07;19.00;1.00
15638;DHT22;26604;53.596;10.042;2022-11-15T06:51:34;19.00;1.00
15638;DHT22;26604;53.596;10.042;2022-11-15T06:54:02;19.00;1.00
15638;DHT22;26604;53.596;10.042;2022-11-15T06:56:29;19.00;1.00
15638;DHT22;26604;53.596;10.042;2022-11-15T06:58:56;19.00;1.00
15638;DHT22;26604;53.596;10.042;2022-11-15T07:01:22;19.00;1.00
15638;DHT22;26604;53.596;10.042;2022-11-15T07:03:49;19.00;1.00
15638;DHT22;26604;53.596;10.042;2022-11-15T07:06:16;19.00;1.00
15638;DHT22;26604;53.596;10.042;2022-11-15T07:08:43;19.00;1.00
15638;DHT22;26604;53.596;10.042;2022-11-15T07:11:12;19.00;1.00
15638;DHT22;26604;53.596;10.042;2022-11-15T07:13:40;19.00;1.00
15638;DHT22;26604;53.596;10.042;2022-11-15T07:16:09;19.00;1.00
15638;DHT22;26604;53.596;10.042;2022-11-15T07:18:37;19.00;1.00
15638;DHT22;26604;53.596;10.042;2022-11-15T07:21:06;19.00;1.00
15638;DHT22;26604;53.596;10.042;2022-11-15T07:23:35;19.00;1.00
15638;DHT22;26604;53.596;10.042;2022-11-15T07:26:02;19.00;1.00
15638;DHT22;26604;53.596;10.042;2022-11-15T07:28:31;19.00;1.00
15638;DHT22;26604;53.596;10.042;2022-11-15T07:30:58;19.00;1.00
15638;DHT22;26604;53.596;10.042;2022-11-15T07:33:28;19.00;1.00
15638;DHT22;26604;53.596;10.042;2022-11-15T07:35:58;19.00;1.00
15638;DHT22;26604;53.596;10.042;2022-11-15T07:38:27;19.00;1.00
15638;DHT22;26604;53.596;10.042;2022-11-15T07:40:56;19.00;1.00
15638;DHT22;26604;53.596;10.042;2022-11-15T07:43:23;19.00;1.00
15638;DHT22;26604;53.596;10.042;2022-11-15T07:45:52;19.00;1.00
15638;DHT22;26604;53.596;10.042;2022-11-15T07:48:19;19.10;1.00
15638;DHT22;26604;53.596;10.042;2022-11-15T07:50:45;19.10;1.00
15638;DHT22;26604;53.596;10.042;2022-11-15T07:53:12;19.10;1.00
15638;DHT22;26604;53.596;10.042;2022-11-15T07:55:41;19.10;1.00
15638;DHT22;26604;53.596;10.042;2022-11-15T07:58:09;19.10;1.00
15638;DHT22;26604;53.596;10.042;2022-11-15T08:00:37;19.20;1.00
15638;DHT22;26604;53.596;10.042;2022-11-15T08:03:07;19.20;1.00
15638;DHT22;26604;53.596;10.042;2022-11-15T08:05:34;19.20;1.00
15638;DHT22;26604;53.596;10.042;2022-11-15T08:08:02;19.20;1.00
15638;DHT22;26604;53.596;10.042;2022-11-15T08:10:29;19.20;1.10
15638;DHT22;26604;53.596;10.042;2022-11-15T08:12:59;19.20;3.60
15638;DHT22;26604;53.596;10.042;2022-11-15T08:15:27;19.30;6.50
15638;DHT22;26604;53.596;10.042;2022-11-15T08:17:55;19.30;8.80
15638;DHT22;26604;53.596;10.042;2022-11-15T08:20:24;19.40;9.90
15638;DHT22;26604;53.596;10.042;2022-11-15T08:22:52;19.30;10.10
15638;DHT22;26604;53.596;10.042;2022-11-15T08:25:19;19.30;10.20
15638;DHT22;26604;53.596;10.042;2022-11-15T08:27:45;19.30;9.90
15638;DHT22;26604;53.596;10.042;2022-11-15T08:30:13;19.30;9.70
15638;DHT22;26604;53.596;10.042;2022-11-15T08:32:41;19.30;9.30
15638;DHT22;26604;53.596;10.042;2022-11-15T08:35:08;19.20;9.00
15638;DHT22;26604;53.596;10.042;2022-11-15T08:37:36;19.20;8.60
15638;DHT22;26604;53.596;10.042;2022-11-15T08:40:04;19.20;8.30
15638;DHT22;26604;53.596;10.042;2022-11-15T08:42:31;19.20;8.00
15638;DHT22;26604;53.596;10.042;2022-11-15T08:44:58;19.20;7.80
15638;DHT22;26604;53.596;10.042;2022-11-15T08:47:25;19.10;7.50
15638;DHT22;26604;53.596;10.042;2022-11-15T08:49:52;19.10;7.20
15638;DHT22;26604;53.596;10.042;2022-11-15T08:52:19;19.10;7.00
15638;DHT22;26604;53.596;10.042;2022-11-15T08:54:47;19.10;6.70
15638;DHT22;26604;53.596;10.042;2022-11-15T08:57:14;19.10;6.40
15638;DHT22;26604;53.596;10.042;2022-11-15T08:59:41;19.10;6.10
15638;DHT22;26604;53.596;10.042;2022-11-15T09:02:11;19.10;5.90
15638;DHT22;26604;53.596;10.042;2022-11-15T09:04:39;19.10;5.60
15638;DHT22;26604;53.596;10.042;2022-11-15T09:07:07;19.10;5.40
15638;DHT22;26604;53.596;10.042;2022-11-15T09:09:33;19.10;5.20
15638;DHT22;26604;53.596;10.042;2022-11-15T09:12:03;19.10;5.00
15638;DHT22;26604;53.596;10.042;2022-11-15T09:14:30;19.10;4.70
15638;DHT22;26604;53.596;10.042;2022-11-15T09:16:58;19.10;4.50
15638;DHT22;26604;53.596;10.042;2022-11-15T09:19:25;19.10;4.30
15638;DHT22;26604;53.596;10.042;2022-11-15T09:21:52;19.10;4.20
15638;DHT22;26604;53.596;10.042;2022-11-15T09:24:19;19.10;5.50
15638;DHT22;26604;53.596;10.042;2022-11-15T09:26:46;19.20;7.40
15638;DHT22;26604;53.596;10.042;2022-11-15T09:29:14;19.30;4.40
15638;DHT22;26604;53.596;10.042;2022-11-15T09:31:41;19.50;2.50
15638;DHT22;26604;53.596;10.042;2022-11-15T09:34:08;19.60;1.00
15638;DHT22;26604;53.596;10.042;2022-11-15T09:36:35;19.70;1.00
15638;DHT22;26604;53.596;10.042;2022-11-15T09:39:02;19.90;1.00
15638;DHT22;26604;53.596;10.042;2022-11-15T09:41:50;20.00;1.00
15638;DHT22;26604;53.596;10.042;2022-11-15T09:44:41;20.20;1.00
15638;DHT22;26604;53.596;10.042;2022-11-15T09:47:38;20.20;1.00
15638;DHT22;26604;53.596;10.042;2022-11-15T09:50:10;20.30;1.00
15638;DHT22;26604;53.596;10.042;2022-11-15T09:52:41;20.40;1.00
15638;DHT22;26604;53.596;10.042;2022-11-15T09:55:10;20.40;1.00
15638;DHT22;26604;53.596;10.042;2022-11-15T09:57:44;20.40;1.00
15638;DHT22;26604;53.596;10.042;2022-11-15T10:00:18;20.40;1.00
15638;DHT22;26604;53.596;10.042;2022-11-15T10:02:56;20.40;1.00
15638;DHT22;26604;53.596;10.042;2022-11-15T10:05:26;20.30;1.00
15638;DHT22;26604;53.596;10.042;2022-11-15T10:07:58;20.30;1.00
15638;DHT22;26604;53.596;10.042;2022-11-15T10:10:31;20.30;1.00
15638;DHT22;26604;53.596;10.042;2022-11-15T10:12:59;20.30;1.00
15638;DHT22;26604;53.596;10.042;2022-11-15T10:15:27;20.20;1.00
15638;DHT22;26604;53.596;10.042;2022-11-15T10:18:14;20.20;1.00
15638;DHT22;26604;53.596;10.042;2022-11-15T10:20:47;20.20;1.00
15638;DHT22;26604;53.596;10.042;2022-11-15T10:23:16;20.20;1.00
15638;DHT22;26604;53.596;10.042;2022-11-15T10:25:44;20.10;1.00
15638;DHT22;26604;53.596;10.042;2022-11-15T10:28:15;20.10;1.00
15638;DHT22;26604;53.596;10.042;2022-11-15T10:30:46;20.00;1.00
15638;DHT22;26604;53.596;10.042;2022-11-15T10:33:30;20.00;1.00
15638;DHT22;26604;53.596;10.042;2022-11-15T10:36:19;20.00;1.00
15638;DHT22;26604;53.596;10.042;2022-11-15T10:38:55;19.90;1.00
15638;DHT22;26604;53.596;10.042;2022-11-15T10:41:29;19.90;1.00
15638;DHT22;26604;53.596;10.042;2022-11-15T10:44:21;19.90;1.00
15638;DHT22;26604;53.596;10.042;2022-11-15T10:47:20;19.90;1.00
15638;DHT22;26604;53.596;10.042;2022-11-15T10:49:57;19.90;1.00
15638;DHT22;26604;53.596;10.042;2022-11-15T10:52:24;19.80;1.00
15638;DHT22;26604;53.596;10.042;2022-11-15T10:54:55;19.80;1.00
15638;DHT22;26604;53.596;10.042;2022-11-15T10:57:25;19.80;1.00
15638;DHT22;26604;53.596;10.042;2022-11-15T10:59:56;19.80;1.00
15638;DHT22;26604;53.596;10.042;2022-11-15T11:02:36;19.70;1.00
15638;DHT22;26604;53.596;10.042;2022-11-15T11:05:06;19.70;1.00
15638;DHT22;26604;53.596;10.042;2022-11-15T11:07:35;19.70;1.00
15638;DHT22;26604;53.596;10.042;2022-11-15T11:10:13;19.70;1.00
15638;DHT22;26604;53.596;10.042;2022-11-15T11:12:43;19.80;1.00
15638;DHT22;26604;53.596;10.042;2022-11-15T11:15:13;19.90;1.10
15638;DHT22;26604;53.596;10.042;2022-11-15T11:17:57;19.90;4.40
15638;DHT22;26604;53.596;10.042;2022-11-15T11:20:32;20.00;5.50
15638;DHT22;26604;53.596;10.042;2022-11-15T11:23:09;20.00;4.80
15638;DHT22;26604;53.596;10.042;2022-11-15T11:25:48;20.00;4.40
15638;DHT22;26604;53.596;10.042;2022-11-15T11:28:25;20.00;3.90
15638;DHT22;26604;53.596;10.042;2022-11-15T11:31:00;19.90;3.70
15638;DHT22;26604;53.596;10.042;2022-11-15T11:33:42;19.90;3.70
15638;DHT22;26604;53.596;10.042;2022-11-15T11:36:21;19.90;4.20
15638;DHT22;26604;53.596;10.042;2022-11-15T11:39:10;19.90;4.50
15638;DHT22;26604;53.596;10.042;2022-11-15T11:41:50;19.90;3.10
15638;DHT22;26604;53.596;10.042;2022-11-15T11:44:30;19.90;1.00
15638;DHT22;26604;53.596;10.042;2022-11-15T11:47:01;19.90;1.00
15638;DHT22;26604;53.596;10.042;2022-11-15T11:49:37;20.00;1.00
15638;DHT22;26604;53.596;10.042;2022-11-15T11:52:10;20.10;1.00
15638;DHT22;26604;53.596;10.042;2022-11-15T11:54:45;20.20;1.00
15638;DHT22;26604;53.596;10.042;2022-11-15T11:57:18;20.20;1.00
15638;DHT22;26604;53.596;10.042;2022-11-15T11:59:53;20.30;1.00
15638;DHT22;26604;53.596;10.042;2022-11-15T12:02:28;20.30;1.00
15638;DHT22;26604;53.596;10.042;2022-11-15T12:05:07;20.30;1.00
15638;DHT22;26604;53.596;10.042;2022-11-15T12:07:37;20.40;1.00
15638;DHT22;26604;53.596;10.042;2022-11-15T12:10:17;20.40;1.00
15638;DHT22;26604;53.596;10.042;2022-11-15T12:12:51;20.30;1.00
15638;DHT22;26604;53.596;10.042;2022-11-15T12:15:23;20.30;1.00
15638;DHT22;26604;53.596;10.042;2022-11-15T12:17:51;20.30;1.00
15638;DHT22;26604;53.596;10.042;2022-11-15T12:20:22;20.30;1.00
15638;DHT22;26604;53.596;10.042;2022-11-15T12:22:53;20.30;1.00
15638;DHT22;26604;53.596;10.042;2022-11-15T12:25:27;20.20;1.00
15638;DHT22;26604;53.596;10.042;2022-11-15T12:27:57;20.20;1.00
15638;DHT22;26604;53.596;10.042;2022-11-15T12:30:31;20.20;1.00
15638;DHT22;26604;53.596;10.042;2022-11-15T12:33:04;20.20;1.00
15638;DHT22;26604;53.596;10.042;2022-11-15T12:35:35;20.20;1.00
15638;DHT22;26604;53.596;10.042;2022-11-15T12:38:03;20.20;1.00
15638;DHT22;26604;53.596;10.042;2022-11-15T12:40:35;20.10;1.00
15638;DHT22;26604;53.596;10.042;2022-11-15T12:43:10;20.10;1.00
15638;DHT22;26604;53.596;10.042;2022-11-15T12:45:53;20.10;1.00
15638;DHT22;26604;53.596;10.042;2022-11-15T12:55:02;20.00;1.00
15638;DHT22;26604;53.596;10.042;2022-11-15T12:57:32;20.00;1.00
15638;DHT22;26604;53.596;10.042;2022-11-15T13:00:00;20.00;1.00
15638;DHT22;26604;53.596;10.042;2022-11-15T13:02:31;20.00;1.00
15638;DHT22;26604;53.596;10.042;2022-11-15T13:08:02;20.00;1.00
15638;DHT22;26604;53.596;10.042;2022-11-15T13:10:32;20.00;1.00
15638;DHT22;26604;53.596;10.042;2022-11-15T13:13:00;20.00;1.00
15638;DHT22;26604;53.596;10.042;2022-11-15T13:15:43;19.90;1.00
15638;DHT22;26604;53.596;10.042;2022-11-15T13:18:34;19.90;1.00
15638;DHT22;26604;53.596;10.042;2022-11-15T13:21:03;19.90;1.00
15638;DHT22;26604;53.596;10.042;2022-11-15T13:23:54;19.90;1.00
15638;DHT22;26604;53.596;10.042;2022-11-15T13:26:22;20.00;1.00
15638;DHT22;26604;53.596;10.042;2022-11-15T13:28:51;19.90;1.00
15638;DHT22;26604;53.596;10.042;2022-11-15T13:31:29;19.90;1.00
15638;DHT22;26604;53.596;10.042;2022-11-15T13:34:00;19.90;1.00
15638;DHT22;26604;53.596;10.042;2022-11-15T13:36:30;19.90;1.00
15638;DHT22;26604;53.596;10.042;2022-11-15T13:39:01;19.90;1.00
15638;DHT22;26604;53.596;10.042;2022-11-15T13:41:32;19.90;1.00
15638;DHT22;26604;53.596;10.042;2022-11-15T13:44:00;19.90;1.00
15638;DHT22;26604;53.596;10.042;2022-11-15T13:46:29;19.90;1.00
15638;DHT22;26604;53.596;10.042;2022-11-15T13:48:57;19.90;1.00
15638;DHT22;26604;53.596;10.042;2022-11-15T13:51:34;19.90;1.00
15638;DHT22;26604;53.596;10.042;2022-11-15T13:54:09;20.00;1.00
15638;DHT22;26604;53.596;10.042;2022-11-15T13:56:40;20.10;1.00
15638;DHT22;26604;53.596;10.042;2022-11-15T13:59:09;20.10;1.00
15638;DHT22;26604;53.596;10.042;2022-11-15T14:01:37;20.20;1.00
15638;DHT22;26604;53.596;10.042;2022-11-15T14:04:12;20.30;1.00
15638;DHT22;26604;53.596;10.042;2022-11-15T14:06:45;20.30;1.00
15638;DHT22;26604;53.596;10.042;2022-11-15T14:09:32;20.40;1.00
15638;DHT22;26604;53.596;10.042;2022-11-15T14:12:02;20.40;1.00
15638;DHT22;26604;53.596;10.042;2022-11-15T14:14:29;20.40;1.00
15638;DHT22;26604;53.596;10.042;2022-11-15T14:16:58;20.40;1.00
15638;DHT22;26604;53.596;10.042;2022-11-15T14:19:37;20.40;1.00
15638;DHT22;26604;53.596;10.042;2022-11-15T14:22:13;20.40;1.00
15638;DHT22;26604;53.596;10.042;2022-11-15T14:24:41;20.40;1.00
15638;DHT22;26604;53.596;10.042;2022-11-15T14:27:22;20.40;1.00
15638;DHT22;26604;53.596;10.042;2022-11-15T14:29:50;20.40;1.00
15638;DHT22;26604;53.596;10.042;2022-11-15T14:32:19;20.30;1.00
15638;DHT22;26604;53.596;10.042;2022-11-15T14:34:46;20.30;1.00
15638;DHT22;26604;53.596;10.042;2022-11-15T14:37:20;20.30;1.00
15638;DHT22;26604;53.596;10.042;2022-11-15T14:39:47;20.30;1.00
15638;DHT22;26604;53.596;10.042;2022-11-15T14:42:14;20.30;1.00
15638;DHT22;26604;53.596;10.042;2022-11-15T14:44:43;20.20;1.00
15638;DHT22;26604;53.596;10.042;2022-11-15T14:47:09;20.20;1.00
15638;DHT22;26604;53.596;10.042;2022-11-15T14:49:36;20.20;1.00
15638;DHT22;26604;53.596;10.042;2022-11-15T14:52:10;20.20;1.00
15638;DHT22;26604;53.596;10.042;2022-11-15T14:54:42;20.10;1.00
15638;DHT22;26604;53.596;10.042;2022-11-15T14:57:09;20.10;1.00
15638;DHT22;26604;53.596;10.042;2022-11-15T14:59:36;20.10;1.00
15638;DHT22;26604;53.596;10.042;2022-11-15T15:02:09;20.10;1.00
15638;DHT22;26604;53.596;10.042;2022-11-15T15:04:40;20.10;1.00
15638;DHT22;26604;53.596;10.042;2022-11-15T15:07:07;20.00;1.00
15638;DHT22;26604;53.596;10.042;2022-11-15T15:09:34;20.00;1.00
15638;DHT22;26604;53.596;10.042;2022-11-15T15:12:01;20.00;1.00
15638;DHT22;26604;53.596;10.042;2022-11-15T15:14:27;20.00;1.00
15638;DHT22;26604;53.596;10.042;2022-11-15T15:16:54;20.00;1.00
15638;DHT22;26604;53.596;10.042;2022-11-15T15:19:23;20.00;1.00
15638;DHT22;26604;53.596;10.042;2022-11-15T15:21:49;19.90;1.00
15638;DHT22;26604;53.596;10.042;2022-11-15T15:24:16;19.90;1.00
15638;DHT22;26604;53.596;10.042;2022-11-15T15:26:43;19.90;1.00
15638;DHT22;26604;53.596;10.042;2022-11-15T15:29:10;19.90;1.00
15638;DHT22;26604;53.596;10.042;2022-11-15T15:31:37;19.90;1.00
15638;DHT22;26604;53.596;10.042;2022-11-15T15:34:03;19.90;1.00
15638;DHT22;26604;53.596;10.042;2022-11-15T15:36:32;19.90;1.00
15638;DHT22;26604;53.596;10.042;2022-11-15T15:38:58;19.90;1.00
15638;DHT22;26604;53.596;10.042;2022-11-15T15:41:26;19.90;1.00
15638;DHT22;26604;53.596;10.042;2022-11-15T15:43:52;19.90;1.00
15638;DHT22;26604;53.596;10.042;2022-11-15T15:46:20;19.90;1.00
15638;DHT22;26604;53.596;10.042;2022-11-15T15:48:47;19.90;1.00
15638;DHT22;26604;53.596;10.042;2022-11-15T15:51:14;19.90;1.00
15638;DHT22;26604;53.596;10.042;2022-11-15T15:53:42;19.90;1.00
15638;DHT22;26604;53.596;10.042;2022-11-15T15:56:09;20.00;1.00
15638;DHT22;26604;53.596;10.042;2022-11-15T15:58:36;20.10;1.00
15638;DHT22;26604;53.596;10.042;2022-11-15T16:01:03;20.20;1.00